createdAt,value
2018-06-11T00:01:37.407Z,11.97
2018-06-11T00:04:05.582Z,17.23
2018-06-11T00:06:33.702Z,19.70
2018-06-11T00:09:03.322Z,17.67
2018-06-11T00:11:31.431Z,13.70
2018-06-11T00:13:59.581Z,11.30
2018-06-11T00:16:27.741Z,12.57
2018-06-11T00:18:55.889Z,15.10
2018-06-11T00:21:24.039Z,15.67
2018-06-11T00:23:52.320Z,18.53
2018-06-11T00:26:20.451Z,15.73
2018-06-11T00:28:48.623Z,15.87
2018-06-11T00:31:16.809Z,17.40
2018-06-11T00:33:44.981Z,16.90
2018-06-11T00:36:13.281Z,19.37
2018-06-11T00:38:41.574Z,15.10
2018-06-11T00:41:09.738Z,14.57
2018-06-11T00:43:37.932Z,13.07
2018-06-11T00:46:06.134Z,12.93
2018-06-11T00:48:34.359Z,17.03
2018-06-11T00:51:04.325Z,18.47
2018-06-11T00:53:33.579Z,14.90
2018-06-11T00:56:11.385Z,11.60
2018-06-11T00:58:39.510Z,14.03
2018-06-11T01:01:07.703Z,15.80
2018-06-11T01:03:35.975Z,16.63
2018-06-11T01:06:04.110Z,14.43
2018-06-11T01:08:32.324Z,15.30
2018-06-11T01:11:00.485Z,12.63
2018-06-11T01:13:29.819Z,15.07
2018-06-11T01:15:58.048Z,13.60
2018-06-11T01:18:27.633Z,12.67
2018-06-11T01:20:56.041Z,13.50
2018-06-11T01:23:25.006Z,15.57
2018-06-11T01:25:53.369Z,12.97
2018-06-11T01:28:21.586Z,11.50
2018-06-11T01:30:50.097Z,12.80
2018-06-11T01:33:19.179Z,15.90
2018-06-11T01:35:47.333Z,17.63
2018-06-11T01:38:15.551Z,14.17
2018-06-11T01:40:43.971Z,21.70
2018-06-11T01:43:12.107Z,16.37
2018-06-11T01:45:40.896Z,10.30
2018-06-11T01:48:09.295Z,15.97
2018-06-11T01:50:37.486Z,13.73
2018-06-11T01:53:05.612Z,16.23
2018-06-11T01:55:33.872Z,13.70
2018-06-11T01:58:03.233Z,18.10
2018-06-11T02:00:31.438Z,16.83
2018-06-11T02:02:59.728Z,13.10
2018-06-11T02:05:29.050Z,14.67
2018-06-11T02:07:57.796Z,15.20
2018-06-11T02:10:27.061Z,13.60
2018-06-11T02:12:57.020Z,11.97
2018-06-11T02:15:25.458Z,14.70
2018-06-11T02:17:54.396Z,15.23
2018-06-11T02:20:22.661Z,17.17
2018-06-11T02:22:50.854Z,12.30
2018-06-11T02:25:20.016Z,16.47
2018-06-11T02:27:49.890Z,12.67
2018-06-11T02:30:20.555Z,15.73
2018-06-11T02:32:49.170Z,14.20
2018-06-11T02:35:17.404Z,13.63
2018-06-11T02:37:45.532Z,11.13
2018-06-11T02:40:14.818Z,13.87
2018-06-11T02:42:43.236Z,13.60
2018-06-11T02:45:11.595Z,20.30
2018-06-11T02:47:39.744Z,20.63
2018-06-11T02:50:08.634Z,15.83
2018-06-11T02:52:36.766Z,19.67
2018-06-11T02:55:04.922Z,16.43
2018-06-11T03:00:07.844Z,15.10
2018-06-11T03:02:36.072Z,18.50
2018-06-11T03:05:04.773Z,17.63
2018-06-11T03:07:32.974Z,15.60
2018-06-11T03:10:01.833Z,16.67
2018-06-11T03:12:30.000Z,15.87
2018-06-11T03:14:59.361Z,16.03
2018-06-11T03:17:27.598Z,13.50
2018-06-11T03:19:55.707Z,13.10
2018-06-11T03:22:23.862Z,14.93
2018-06-11T03:24:52.038Z,22.90
2018-06-11T03:27:20.315Z,15.80
2018-06-11T03:29:48.552Z,13.93
2018-06-11T03:32:16.805Z,20.77
2018-06-11T03:34:45.115Z,13.60
2018-06-11T03:37:13.306Z,17.40
2018-06-11T03:39:41.456Z,16.77
2018-06-11T03:42:09.592Z,16.40
2018-06-11T03:44:39.138Z,16.20
2018-06-11T03:47:07.416Z,13.67
2018-06-11T03:49:35.609Z,13.27
2018-06-11T03:52:05.277Z,15.37
2018-06-11T03:54:33.964Z,14.30
2018-06-11T03:57:02.388Z,13.70
2018-06-11T03:59:30.964Z,14.47
2018-06-11T04:01:59.123Z,11.90
2018-06-11T04:04:27.290Z,13.93
2018-06-11T04:06:55.446Z,15.10
2018-06-11T04:09:23.602Z,13.43
2018-06-11T04:11:51.576Z,13.80
2018-06-11T04:14:19.853Z,15.57
2018-06-11T04:16:48.121Z,13.27
2018-06-11T04:19:16.501Z,14.63
2018-06-11T04:21:44.677Z,14.53
2018-06-11T04:24:13.688Z,18.57
2018-06-11T04:26:42.413Z,14.67
2018-06-11T04:29:10.587Z,19.00
2018-06-11T04:31:38.719Z,22.30
2018-06-11T04:34:07.004Z,18.37
2018-06-11T04:36:36.181Z,13.30
2018-06-11T04:39:05.827Z,14.20
2018-06-11T04:41:33.955Z,13.57
2018-06-11T04:44:02.125Z,17.93
2018-06-11T04:46:30.493Z,16.80
2018-06-11T04:48:58.632Z,15.53
2018-06-11T04:51:26.826Z,17.03
2018-06-11T04:53:54.938Z,18.87
2018-06-11T04:56:23.258Z,16.00
2018-06-11T04:58:53.176Z,13.17
2018-06-11T05:01:21.638Z,16.50
2018-06-11T05:03:49.745Z,14.30
2018-06-11T05:06:17.912Z,15.20
2018-06-11T05:08:46.095Z,21.20
2018-06-11T05:11:14.237Z,20.00
2018-06-11T05:13:42.360Z,17.33
2018-06-11T05:16:11.239Z,20.77
2018-06-11T05:18:39.471Z,20.27
2018-06-11T05:21:07.701Z,20.40
2018-06-11T05:23:35.853Z,16.30
2018-06-11T05:26:04.659Z,22.70
2018-06-11T05:28:34.187Z,18.47
2018-06-11T05:31:02.460Z,15.50
2018-06-11T05:33:31.353Z,14.00
2018-06-11T05:36:01.377Z,18.70
2018-06-11T05:38:29.503Z,18.27
2018-06-11T05:41:00.025Z,15.87
2018-06-11T05:43:28.251Z,15.97
2018-06-11T05:45:56.381Z,17.40
2018-06-11T05:48:24.347Z,18.17
2018-06-11T05:50:52.504Z,18.90
2018-06-11T05:53:20.733Z,23.53
2018-06-11T05:55:48.892Z,20.10
2018-06-11T05:58:17.091Z,19.83
2018-06-11T06:00:46.117Z,19.17
2018-06-11T06:03:14.253Z,17.17
2018-06-11T06:05:42.411Z,17.50
2018-06-11T06:08:10.609Z,22.13
2018-06-11T06:10:39.580Z,18.90
2018-06-11T06:13:08.011Z,22.47
2018-06-11T06:15:36.163Z,18.57
2018-06-11T06:18:04.322Z,21.43
2018-06-11T06:20:32.507Z,19.60
2018-06-11T06:23:00.707Z,18.83
2018-06-11T06:25:28.852Z,21.40
2018-06-11T06:27:57.056Z,18.30
2018-06-11T06:30:25.376Z,15.17
2018-06-11T06:32:53.699Z,19.10
2018-06-11T06:35:21.856Z,21.33
2018-06-11T06:37:50.093Z,23.40
2018-06-11T06:40:19.252Z,23.10
2018-06-11T06:42:47.426Z,26.33
2018-06-11T06:45:15.601Z,22.30
2018-06-11T06:47:43.916Z,22.20
2018-06-11T06:50:12.082Z,27.20
2018-06-11T06:52:40.258Z,26.73
2018-06-11T06:55:08.399Z,21.60
2018-06-11T06:57:36.574Z,18.03
2018-06-11T07:00:05.136Z,22.50
2018-06-11T07:02:33.333Z,18.30
2018-06-11T07:05:01.488Z,20.33
2018-06-11T07:07:30.162Z,29.20
2018-06-11T07:09:58.340Z,20.10
2018-06-11T07:12:26.462Z,20.17
2018-06-11T07:14:54.728Z,25.73
2018-06-11T07:17:22.950Z,24.50
2018-06-11T07:19:51.187Z,22.57
2018-06-11T07:22:19.476Z,19.50
2018-06-11T07:24:47.640Z,18.40
2018-06-11T07:27:15.670Z,20.23
2018-06-11T07:29:43.808Z,18.00
2018-06-11T07:32:12.642Z,20.80
2018-06-11T07:34:40.825Z,21.40
2018-06-11T07:37:10.133Z,18.27
2018-06-11T07:39:38.603Z,17.07
2018-06-11T07:42:08.367Z,18.77
2018-06-11T07:44:36.515Z,17.20
2018-06-11T07:47:04.690Z,16.30
2018-06-11T07:49:32.921Z,19.80
2018-06-11T07:52:01.647Z,16.27
2018-06-11T07:54:29.795Z,17.90
2018-06-11T07:56:58.731Z,18.80
2018-06-11T07:59:26.931Z,16.87
2018-06-11T08:01:55.099Z,15.70
2018-06-11T08:04:25.049Z,16.90
2018-06-11T08:06:53.219Z,20.73
2018-06-11T08:09:21.386Z,21.17
2018-06-11T08:11:50.091Z,19.47
2018-06-11T08:14:18.499Z,21.53
2018-06-11T08:16:46.711Z,22.33
2018-06-11T08:19:14.884Z,19.97
2018-06-11T08:21:43.060Z,21.63
2018-06-11T08:24:11.255Z,21.53
2018-06-11T08:26:40.978Z,17.87
2018-06-11T08:29:09.173Z,18.63
2018-06-11T08:31:37.355Z,18.40
2018-06-11T08:34:05.635Z,18.63
2018-06-11T08:36:33.794Z,17.50
2018-06-11T08:39:01.992Z,18.47
2018-06-11T08:41:30.655Z,15.47
2018-06-11T08:43:58.887Z,14.17
2018-06-11T08:46:27.712Z,16.17
2018-06-11T08:48:55.919Z,13.20
2018-06-11T08:51:24.930Z,16.13
2018-06-11T08:53:53.091Z,19.67
2018-06-11T08:56:21.184Z,21.47
2018-06-11T08:58:49.339Z,14.90
2018-06-11T09:01:17.511Z,18.43
2018-06-11T09:03:45.692Z,16.17
2018-06-11T09:06:13.833Z,13.90
2018-06-11T09:08:42.299Z,16.57
2018-06-11T09:11:11.190Z,14.83
2018-06-11T09:13:39.326Z,15.00
2018-06-11T09:16:07.487Z,15.87
2018-06-11T09:18:35.811Z,17.20
2018-06-11T09:21:05.395Z,25.63
2018-06-11T09:23:33.582Z,16.07
2018-06-11T09:26:03.380Z,13.23
2018-06-11T09:28:31.814Z,11.10
2018-06-11T09:30:59.995Z,9.90
2018-06-11T09:33:28.606Z,14.63
2018-06-11T09:35:56.748Z,14.10
2018-06-11T09:38:24.750Z,10.97
2018-06-11T09:40:52.900Z,14.67
2018-06-11T09:43:20.846Z,13.90
2018-06-11T09:45:49.033Z,12.07
2018-06-11T09:48:18.626Z,12.80
2018-06-11T09:50:46.917Z,23.33
2018-06-11T09:53:15.250Z,12.93
2018-06-11T09:55:43.402Z,15.00
2018-06-11T09:58:11.626Z,11.63
2018-06-11T10:00:41.109Z,17.23
2018-06-11T10:03:10.350Z,10.67
2018-06-11T10:05:39.823Z,9.83
2018-06-11T10:08:07.936Z,8.93
2018-06-11T10:10:36.202Z,13.13
2018-06-11T10:13:06.568Z,9.10
2018-06-11T10:15:36.096Z,8.63
2018-06-11T10:18:04.106Z,8.10
2018-06-11T10:20:32.256Z,8.83
2018-06-11T10:23:00.358Z,12.03
2018-06-11T10:25:28.571Z,7.93
2018-06-11T10:27:56.837Z,8.00
2018-06-11T10:30:25.038Z,7.23
2018-06-11T10:32:55.423Z,7.30
2018-06-11T10:35:23.802Z,7.27
2018-06-11T10:37:52.622Z,7.23
2018-06-11T10:40:21.580Z,10.20
2018-06-11T10:42:49.808Z,6.27
2018-06-11T10:45:18.152Z,10.50
2018-06-11T10:47:46.784Z,5.90
2018-06-11T10:50:14.948Z,6.47
2018-06-11T10:52:43.136Z,12.43
2018-06-11T10:55:12.728Z,8.73
2018-06-11T10:57:41.402Z,6.07
2018-06-11T11:00:10.911Z,6.60
2018-06-11T11:02:39.236Z,5.00
2018-06-11T11:05:07.374Z,6.20
2018-06-11T11:07:35.620Z,6.93
2018-06-11T11:10:04.098Z,4.70
2018-06-11T11:12:32.327Z,7.63
2018-06-11T11:15:00.466Z,5.50
2018-06-11T11:17:28.653Z,5.37
2018-06-11T11:19:57.567Z,8.80
2018-06-11T11:22:25.717Z,7.77
2018-06-11T11:24:53.603Z,7.10
2018-06-11T11:27:21.575Z,5.83
2018-06-11T11:29:53.740Z,6.67
2018-06-11T11:32:22.014Z,4.80
2018-06-11T11:34:50.377Z,5.40
2018-06-11T11:37:18.663Z,4.43
2018-06-11T11:39:46.788Z,5.00
2018-06-11T11:42:14.927Z,6.40
2018-06-11T11:44:42.933Z,5.50
2018-06-11T11:47:11.817Z,4.73
2018-06-11T11:49:40.865Z,5.47
2018-06-11T11:52:09.011Z,4.60
2018-06-11T11:54:37.561Z,5.40
2018-06-11T11:57:06.527Z,5.37
2018-06-11T11:59:34.664Z,5.50
2018-06-11T12:02:02.878Z,9.10
2018-06-11T12:04:31.018Z,8.50
2018-06-11T12:06:59.151Z,5.50
2018-06-11T12:09:27.339Z,8.43
2018-06-11T12:11:56.046Z,6.00
2018-06-11T12:14:24.181Z,5.60
2018-06-11T12:16:52.433Z,7.73
2018-06-11T12:19:21.357Z,6.70
2018-06-11T12:21:50.014Z,5.53
2018-06-11T12:24:18.703Z,3.93
2018-06-11T12:26:46.997Z,4.90
2018-06-11T12:29:16.155Z,3.50
2018-06-11T12:31:46.253Z,5.07
2018-06-11T12:34:15.389Z,6.93
2018-06-11T12:36:44.221Z,4.10
2018-06-11T12:39:13.115Z,10.20
2018-06-11T12:41:41.962Z,6.17
2018-06-11T12:44:12.020Z,3.23
2018-06-11T12:46:40.229Z,5.67
2018-06-11T12:49:09.017Z,5.53
2018-06-11T12:51:38.061Z,4.63
2018-06-11T12:54:06.924Z,3.40
2018-06-11T12:56:35.902Z,4.03
2018-06-11T12:59:04.826Z,3.30
2018-06-11T13:01:34.285Z,4.03
2018-06-11T13:04:05.279Z,4.40
2018-06-11T13:06:33.440Z,4.67
2018-06-11T13:09:01.912Z,7.80
2018-06-11T13:11:30.114Z,5.90
2018-06-11T13:13:58.585Z,5.80
2018-06-11T13:16:27.783Z,3.27
2018-06-11T13:18:55.926Z,4.93
2018-06-11T13:21:24.956Z,8.53
2018-06-11T13:23:53.388Z,3.07
2018-06-11T13:26:21.569Z,3.40
2018-06-11T13:28:49.582Z,3.73
2018-06-11T13:31:17.874Z,4.80
2018-06-11T13:33:46.159Z,5.20
2018-06-11T13:36:14.454Z,3.90
2018-06-11T13:38:43.151Z,2.73
2018-06-11T13:41:12.070Z,5.23
2018-06-11T13:43:40.243Z,9.50
2018-06-11T13:46:08.384Z,5.43
2018-06-11T13:48:36.709Z,4.40
2018-06-11T13:51:04.906Z,3.27
2018-06-11T13:53:33.558Z,3.20
2018-06-11T13:56:02.290Z,2.80
2018-06-11T13:58:31.394Z,5.07
2018-06-11T14:00:59.524Z,4.77
2018-06-11T14:03:30.768Z,4.70
2018-06-11T14:05:58.952Z,3.50
2018-06-11T14:08:29.474Z,7.17
2018-06-11T14:10:57.640Z,4.90
2018-06-11T14:13:25.838Z,4.13
2018-06-11T14:15:54.097Z,4.20
2018-06-11T14:18:22.504Z,6.50
2018-06-11T14:20:50.643Z,5.87
2018-06-11T14:23:19.411Z,6.17
2018-06-11T14:25:47.498Z,4.27
2018-06-11T14:28:15.726Z,7.23
2018-06-11T14:30:44.951Z,3.67
2018-06-11T14:33:13.116Z,5.60
2018-06-11T14:35:41.292Z,3.77
2018-06-11T14:38:09.297Z,3.40
2018-06-11T14:40:38.046Z,6.07
2018-06-11T14:43:06.182Z,7.40
2018-06-11T14:45:34.380Z,6.23
2018-06-11T14:48:02.515Z,3.03
2018-06-11T14:50:30.714Z,5.43
2018-06-11T14:52:58.917Z,7.30
2018-06-11T14:55:27.093Z,4.47
2018-06-11T14:57:55.467Z,6.93
2018-06-11T15:00:23.645Z,4.00
2018-06-11T15:02:51.879Z,4.50
2018-06-11T15:05:20.050Z,7.80
2018-06-11T15:07:48.236Z,3.33
2018-06-11T15:10:16.491Z,3.27
2018-06-11T15:12:44.707Z,2.90
2018-06-11T15:15:12.877Z,12.23
2018-06-11T15:17:44.221Z,3.10
2018-06-11T15:20:12.200Z,5.17
2018-06-11T15:22:40.305Z,3.83
2018-06-11T15:25:09.050Z,2.97
2018-06-11T15:27:37.225Z,3.00
2018-06-11T15:30:05.439Z,5.13
2018-06-11T15:32:33.370Z,2.53
2018-06-11T15:35:01.541Z,2.50
2018-06-11T15:37:29.721Z,2.70
2018-06-11T15:39:57.897Z,4.33
2018-06-11T15:42:26.128Z,6.03
2018-06-11T15:44:56.190Z,7.27
2018-06-11T15:47:24.529Z,3.23
2018-06-11T15:49:53.559Z,7.63
2018-06-11T15:52:22.126Z,6.70
2018-06-11T15:54:50.429Z,2.73
2018-06-11T15:57:18.875Z,5.50
2018-06-11T15:59:47.039Z,2.90
2018-06-11T16:02:15.001Z,2.60
2018-06-11T16:04:43.215Z,3.93
2018-06-11T16:07:12.166Z,6.47
2018-06-11T16:09:40.546Z,6.47
2018-06-11T16:12:08.731Z,3.30
2018-06-11T16:14:38.120Z,3.93
2018-06-11T16:17:06.316Z,6.77
2018-06-11T16:19:34.306Z,5.67
2018-06-11T16:22:02.555Z,3.60
2018-06-11T16:24:31.330Z,4.77
2018-06-11T16:26:59.607Z,2.70
2018-06-11T16:29:28.349Z,4.17
2018-06-11T16:31:56.826Z,4.70
2018-06-11T16:34:25.306Z,7.47
2018-06-11T16:36:54.041Z,7.23
2018-06-11T16:39:22.228Z,3.70
2018-06-11T16:41:50.401Z,4.33
2018-06-11T16:44:18.817Z,3.17
2018-06-11T16:46:48.383Z,3.77
2018-06-11T16:49:16.382Z,8.13
2018-06-11T16:51:45.071Z,8.83
2018-06-11T16:54:13.255Z,5.47
2018-06-11T16:56:41.729Z,5.30
2018-06-11T16:59:10.010Z,3.83
2018-06-11T17:01:38.462Z,4.50
2018-06-11T17:04:07.237Z,10.93
2018-06-11T17:06:35.596Z,4.47
2018-06-11T17:09:05.553Z,5.57
2018-06-11T17:11:33.841Z,5.57
2018-06-11T17:14:02.092Z,4.20
2018-06-11T17:16:31.418Z,9.90
2018-06-11T17:18:59.473Z,6.20
2018-06-11T17:21:29.022Z,4.50
2018-06-11T17:23:57.705Z,4.10
2018-06-11T17:26:27.217Z,3.90
2018-06-11T17:28:57.853Z,4.10
2018-06-11T17:31:26.109Z,2.77
2018-06-11T17:33:54.365Z,3.20
2018-06-11T17:36:23.131Z,3.70
2018-06-11T17:38:51.323Z,3.83
2018-06-11T17:41:19.703Z,7.73
2018-06-11T17:43:48.039Z,3.30
2018-06-11T17:46:16.031Z,8.13
2018-06-11T17:48:44.175Z,7.10
2018-06-11T17:51:12.515Z,4.87
2018-06-11T17:53:40.813Z,5.10
2018-06-11T17:56:09.227Z,4.30
2018-06-11T17:58:37.859Z,5.03
2018-06-11T18:01:06.390Z,4.37
2018-06-11T18:03:34.918Z,4.43
2018-06-11T18:06:03.157Z,7.90
2018-06-11T18:08:31.590Z,7.60
2018-06-11T18:11:00.219Z,6.60
2018-06-11T18:13:28.702Z,5.23
2018-06-11T18:15:57.877Z,3.70
2018-06-11T18:18:31.093Z,3.70
2018-06-11T18:20:59.300Z,6.60
2018-06-11T18:23:28.355Z,4.40
2018-06-11T18:25:56.600Z,5.30
2018-06-11T18:28:24.768Z,3.57
2018-06-11T18:31:00.457Z,3.90
2018-06-11T18:33:31.389Z,5.20
2018-06-11T18:36:00.051Z,11.47
2018-06-11T18:38:28.452Z,19.23
2018-06-11T18:40:57.585Z,9.70
2018-06-11T18:43:27.062Z,5.50
2018-06-11T18:45:55.525Z,6.90
2018-06-11T18:48:24.385Z,12.63
2018-06-11T18:50:52.564Z,6.93
2018-06-11T18:53:20.754Z,5.97
2018-06-11T18:55:48.981Z,5.60
2018-06-11T18:58:17.116Z,8.07
2018-06-11T19:00:45.551Z,3.10
2018-06-11T19:03:13.809Z,4.80
2018-06-11T19:05:42.234Z,4.63
2018-06-11T19:08:10.682Z,4.07
2018-06-11T19:10:39.156Z,4.73
2018-06-11T19:13:07.463Z,5.60
2018-06-11T19:15:35.752Z,9.50
2018-06-11T19:18:04.022Z,6.90
2018-06-11T19:20:32.322Z,8.10
2018-06-11T19:23:00.593Z,7.60
2018-06-11T19:25:29.486Z,5.83
2018-06-11T19:27:57.852Z,6.53
2018-06-11T19:30:26.097Z,3.10
2018-06-11T19:32:54.301Z,5.00
2018-06-11T19:35:22.588Z,7.20
2018-06-11T19:37:51.485Z,8.20
2018-06-11T19:40:19.695Z,6.13
2018-06-11T19:42:49.373Z,4.77
2018-06-11T19:45:17.729Z,5.90
2018-06-11T19:47:46.161Z,5.30
2018-06-11T19:50:14.556Z,6.43
2018-06-11T19:52:43.246Z,3.37
2018-06-11T19:55:12.275Z,5.00
2018-06-11T19:57:40.819Z,10.40
2018-06-11T20:00:10.926Z,8.50
2018-06-11T20:02:39.508Z,7.20
2018-06-11T20:05:07.791Z,3.77
2018-06-11T20:07:35.960Z,4.73
2018-06-11T20:10:05.671Z,7.33
2018-06-11T20:12:33.867Z,6.23
2018-06-11T20:15:02.139Z,6.97
2018-06-11T20:17:31.035Z,5.50
2018-06-11T20:19:59.275Z,3.07
2018-06-11T20:22:27.466Z,2.63
2018-06-11T20:24:56.507Z,3.10
2018-06-11T20:27:24.755Z,6.63
2018-06-11T20:29:53.049Z,3.80
2018-06-11T20:32:21.347Z,6.23
2018-06-11T20:34:49.690Z,6.37
2018-06-11T20:37:17.909Z,10.50
2018-06-11T20:39:46.107Z,4.13
2018-06-11T20:42:14.327Z,3.73
2018-06-11T20:44:42.551Z,5.17
2018-06-11T20:47:11.812Z,7.33
2018-06-11T20:49:40.002Z,9.03
2018-06-11T20:52:08.181Z,5.27
2018-06-11T20:54:37.136Z,7.20
2018-06-11T20:57:05.360Z,16.30
2018-06-11T20:59:34.135Z,8.43
2018-06-11T21:02:02.485Z,9.73
2018-06-11T21:04:30.838Z,8.43
2018-06-11T21:07:00.189Z,3.00
2018-06-11T21:09:28.402Z,5.10
2018-06-11T21:11:56.828Z,6.27
2018-06-11T21:14:25.019Z,5.27
2018-06-11T21:16:53.483Z,4.90
2018-06-11T21:19:21.851Z,4.60
2018-06-11T21:21:52.586Z,6.63
2018-06-11T21:24:20.782Z,4.87
2018-06-11T21:26:49.649Z,2.87
2018-06-11T21:29:17.833Z,5.13
2018-06-11T21:31:46.757Z,10.90
2018-06-11T21:34:15.254Z,14.30
2018-06-11T21:36:44.219Z,3.83
2018-06-11T21:39:12.651Z,2.83
2018-06-11T21:41:40.814Z,4.30
2018-06-11T21:44:09.040Z,9.20
2018-06-11T21:46:37.259Z,8.53
2018-06-11T21:49:05.486Z,5.70
2018-06-11T21:51:33.844Z,6.43
2018-06-11T21:54:03.918Z,2.37
2018-06-11T21:56:33.808Z,5.00
2018-06-11T21:59:02.079Z,10.40
2018-06-11T22:01:30.273Z,14.03
2018-06-11T22:03:58.677Z,3.87
2018-06-11T22:06:27.082Z,8.17
2018-06-11T22:08:55.214Z,9.87
2018-06-11T22:11:23.748Z,3.70
2018-06-11T22:13:52.058Z,6.17
2018-06-11T22:16:20.248Z,5.17
2018-06-11T22:18:48.526Z,5.40
2018-06-11T22:21:16.810Z,4.13
2018-06-11T22:23:44.999Z,9.83
2018-06-11T22:26:14.542Z,3.73
2018-06-11T22:28:42.821Z,3.57
2018-06-11T22:31:10.988Z,6.43
2018-06-11T22:33:39.976Z,4.93
2018-06-11T22:36:08.311Z,4.80
2018-06-11T22:38:36.570Z,4.87
2018-06-11T22:41:04.740Z,6.20
2018-06-11T22:43:32.986Z,5.30
2018-06-11T22:46:01.163Z,10.00
2018-06-11T22:48:29.399Z,3.93
2018-06-11T22:50:58.458Z,11.83
2018-06-11T22:53:26.605Z,7.73
2018-06-11T22:55:54.746Z,7.77
2018-06-11T22:58:23.598Z,5.93
2018-06-11T23:00:51.712Z,3.67
2018-06-11T23:03:20.180Z,7.40
2018-06-11T23:05:48.331Z,4.93
2018-06-11T23:08:16.476Z,5.27
2018-06-11T23:10:45.432Z,4.57
2018-06-11T23:13:13.403Z,15.10
2018-06-11T23:15:41.601Z,4.63
2018-06-11T23:18:09.772Z,5.10
2018-06-11T23:20:37.924Z,5.63
2018-06-11T23:23:06.089Z,12.20
2018-06-11T23:25:34.262Z,5.67
2018-06-11T23:28:02.540Z,7.83
2018-06-11T23:30:30.752Z,11.53
2018-06-11T23:32:58.872Z,8.80
2018-06-11T23:35:27.100Z,5.30
2018-06-11T23:37:55.307Z,5.73
2018-06-11T23:40:23.309Z,5.83
2018-06-11T23:42:51.466Z,4.80
2018-06-11T23:45:19.651Z,6.13
2018-06-11T23:47:47.860Z,6.00
2018-06-11T23:50:16.647Z,4.67
2018-06-11T23:52:44.842Z,9.60
2018-06-11T23:55:12.998Z,7.83
2018-06-11T23:57:41.130Z,7.20
